createdAt,value
2024-05-09T00:00:39.977Z,15.05
2024-05-09T00:03:26.650Z,16.88
2024-05-09T00:06:16.246Z,16.10
2024-05-09T00:09:01.375Z,15.25
2024-05-09T00:11:47.091Z,14.95
2024-05-09T00:14:32.483Z,16.27
2024-05-09T00:17:17.943Z,16.25
2024-05-09T00:20:09.069Z,16.27
2024-05-09T00:22:59.126Z,17.92
2024-05-09T00:25:45.459Z,17.48
2024-05-09T00:28:30.716Z,19.80
2024-05-09T00:31:16.433Z,17.83
2024-05-09T00:34:01.840Z,19.15
2024-05-09T00:36:47.466Z,16.95
2024-05-09T00:39:32.592Z,17.52
2024-05-09T00:42:18.040Z,16.40
2024-05-09T00:45:03.618Z,18.00
2024-05-09T00:47:49.517Z,16.45
2024-05-09T00:50:38.172Z,16.50
2024-05-09T00:53:24.749Z,16.60
2024-05-09T00:56:11.957Z,17.23
2024-05-09T00:58:57.338Z,17.40
2024-05-09T01:01:43.439Z,18.38
2024-05-09T01:04:28.926Z,19.08
2024-05-09T01:07:14.602Z,17.80
2024-05-09T01:10:00.035Z,17.13
2024-05-09T01:12:45.549Z,19.48
2024-05-09T01:15:30.903Z,20.52
2024-05-09T01:18:16.461Z,21.63
2024-05-09T01:21:02.191Z,20.65
2024-05-09T01:23:47.869Z,19.05
2024-05-09T01:26:33.323Z,18.45
2024-05-09T01:29:19.006Z,19.65
2024-05-09T01:32:05.086Z,21.40
2024-05-09T01:34:50.587Z,16.50
2024-05-09T01:37:36.057Z,18.58
2024-05-09T01:40:28.656Z,16.55
2024-05-09T01:43:20.798Z,17.50
2024-05-09T01:46:06.127Z,16.40
2024-05-09T01:48:51.610Z,17.88
2024-05-09T01:51:36.701Z,20.02
2024-05-09T01:54:22.382Z,20.35
2024-05-09T01:57:07.998Z,18.42
2024-05-09T01:59:53.603Z,20.05
2024-05-09T02:02:38.900Z,21.55
2024-05-09T02:05:24.591Z,19.88
2024-05-09T02:08:18.659Z,24.23
2024-05-09T02:11:04.736Z,21.15
2024-05-09T02:13:50.235Z,20.33
2024-05-09T02:16:35.724Z,17.95
2024-05-09T02:19:21.013Z,18.75
2024-05-09T02:22:06.755Z,18.90
2024-05-09T02:24:52.028Z,19.00
2024-05-09T02:27:37.919Z,20.50
2024-05-09T02:30:30.703Z,23.73
2024-05-09T02:33:24.045Z,23.48
2024-05-09T02:36:10.407Z,19.38
2024-05-09T02:38:56.007Z,20.42
2024-05-09T02:41:41.529Z,19.92
2024-05-09T02:44:27.064Z,21.10
2024-05-09T02:47:12.892Z,22.63
2024-05-09T02:49:58.545Z,23.63
2024-05-09T02:52:44.388Z,22.77
2024-05-09T02:55:29.948Z,26.00
2024-05-09T02:58:15.407Z,25.80
2024-05-09T03:01:01.249Z,26.85
2024-05-09T03:03:48.513Z,25.88
2024-05-09T03:06:34.107Z,24.48
2024-05-09T03:09:19.414Z,24.48
2024-05-09T03:12:05.192Z,25.35
2024-05-09T03:14:50.914Z,23.00
2024-05-09T03:17:36.908Z,23.10
2024-05-09T03:20:27.596Z,23.67
2024-05-09T03:23:18.340Z,27.45
2024-05-09T03:26:03.738Z,26.08
2024-05-09T03:28:49.518Z,25.73
2024-05-09T03:31:34.709Z,27.65
2024-05-09T03:34:20.501Z,27.25
2024-05-09T03:37:06.018Z,24.98
2024-05-09T03:39:51.366Z,25.63
2024-05-09T03:42:41.786Z,25.92
2024-05-09T03:45:27.016Z,24.73
2024-05-09T03:48:13.220Z,21.02
2024-05-09T03:50:58.739Z,23.83
2024-05-09T03:53:44.159Z,23.70
2024-05-09T03:56:29.730Z,22.65
2024-05-09T03:59:15.452Z,23.83
2024-05-09T04:02:01.042Z,25.83
2024-05-09T04:04:46.501Z,23.23
2024-05-09T04:07:33.367Z,21.60
2024-05-09T04:10:27.688Z,25.42
2024-05-09T04:13:17.931Z,22.33
2024-05-09T04:16:03.767Z,23.08
2024-05-09T04:18:49.710Z,23.52
2024-05-09T04:21:35.085Z,25.42
2024-05-09T04:24:20.398Z,22.60
2024-05-09T04:27:05.873Z,24.08
2024-05-09T04:29:51.447Z,25.27
2024-05-09T04:32:36.616Z,24.13
2024-05-09T04:35:22.583Z,25.63
2024-05-09T04:38:11.423Z,24.95
2024-05-09T04:40:56.844Z,23.08
2024-05-09T04:43:42.495Z,22.92
2024-05-09T04:46:28.071Z,23.10
2024-05-09T04:49:14.339Z,23.10
2024-05-09T04:52:02.667Z,22.02
2024-05-09T04:54:48.217Z,24.65
2024-05-09T04:57:34.042Z,21.13
2024-05-09T05:00:28.130Z,20.27
2024-05-09T05:03:18.254Z,21.40
2024-05-09T05:06:04.364Z,21.10
2024-05-09T05:08:49.823Z,19.40
2024-05-09T05:11:35.484Z,19.75
2024-05-09T05:14:20.850Z,18.58
2024-05-09T05:17:06.371Z,19.17
2024-05-09T05:19:51.928Z,17.65
2024-05-09T05:22:37.461Z,18.38
2024-05-09T05:25:22.629Z,17.15
2024-05-09T05:28:08.731Z,15.40
2024-05-09T05:30:54.490Z,17.50
2024-05-09T05:33:39.824Z,16.63
2024-05-09T05:36:25.264Z,16.67
2024-05-09T05:39:10.855Z,18.27
2024-05-09T05:41:56.567Z,14.05
2024-05-09T05:44:42.201Z,13.38
2024-05-09T05:47:27.932Z,16.00
2024-05-09T05:50:23.770Z,15.27
2024-05-09T05:53:13.467Z,16.83
2024-05-09T05:55:58.876Z,16.42
2024-05-09T05:58:44.420Z,16.52
2024-05-09T06:01:30.064Z,20.75
2024-05-09T06:04:15.773Z,17.15
2024-05-09T06:07:01.036Z,17.52
2024-05-09T06:09:47.602Z,20.30
2024-05-09T06:12:34.504Z,19.65
2024-05-09T06:15:19.838Z,18.48
2024-05-09T06:18:10.195Z,19.42
2024-05-09T06:20:56.941Z,17.97
2024-05-09T06:23:50.044Z,20.52
2024-05-09T06:26:35.759Z,19.45
2024-05-09T06:29:21.452Z,21.77
2024-05-09T06:32:07.147Z,16.17
2024-05-09T06:34:52.740Z,14.88
2024-05-09T06:37:38.479Z,14.48
2024-05-09T06:40:29.254Z,23.13
2024-05-09T06:43:20.134Z,18.38
2024-05-09T06:46:05.535Z,18.10
2024-05-09T06:48:51.521Z,17.80
2024-05-09T06:51:41.258Z,18.77
2024-05-09T06:54:26.878Z,17.85
2024-05-09T06:57:12.001Z,17.05
2024-05-09T07:00:01.360Z,12.48
2024-05-09T07:02:46.874Z,17.85
2024-05-09T07:05:33.401Z,17.20
2024-05-09T07:08:19.565Z,18.25
2024-05-09T07:11:05.136Z,24.85
2024-05-09T07:13:50.366Z,20.00
2024-05-09T07:16:35.993Z,22.23
2024-05-09T07:19:21.554Z,17.98
2024-05-09T07:22:07.135Z,15.73
2024-05-09T07:24:54.202Z,14.52
2024-05-09T07:27:39.833Z,10.18
2024-05-09T07:30:32.829Z,10.07
2024-05-09T07:33:22.469Z,6.50
2024-05-09T07:36:09.506Z,7.53
2024-05-09T07:38:54.970Z,11.18
2024-05-09T07:41:40.822Z,6.72
2024-05-09T07:44:26.279Z,8.48
2024-05-09T07:48:27.578Z,6.80
2024-05-09T07:53:36.368Z,9.60
2024-05-09T07:56:12.642Z,7.47
2024-05-09T07:58:58.202Z,7.18
2024-05-09T08:01:43.740Z,5.05
2024-05-09T08:04:29.426Z,6.47
2024-05-09T08:07:15.340Z,4.85
2024-05-09T08:10:00.911Z,5.53
2024-05-09T08:12:46.149Z,5.95
2024-05-09T08:15:31.559Z,6.00
2024-05-09T08:18:17.160Z,6.20
2024-05-09T08:21:02.610Z,10.55
2024-05-09T08:23:47.799Z,11.63
2024-05-09T08:26:33.194Z,7.15
2024-05-09T08:29:18.661Z,9.65
2024-05-09T08:32:05.920Z,17.75
2024-05-09T08:34:51.332Z,8.48
2024-05-09T08:37:39.891Z,8.60
2024-05-09T08:40:33.417Z,8.07
2024-05-09T08:43:24.422Z,11.00
2024-05-09T08:46:13.121Z,14.38
2024-05-09T08:48:59.745Z,12.88
2024-05-09T08:51:46.814Z,9.60
2024-05-09T08:54:32.229Z,13.45
2024-05-09T08:57:19.137Z,15.02
2024-05-09T09:00:10.107Z,14.93
2024-05-09T09:03:00.294Z,17.42
2024-05-09T09:06:07.822Z,14.35
2024-05-09T09:08:54.782Z,12.40
2024-05-09T09:11:39.939Z,13.00
2024-05-09T09:14:25.491Z,12.80
2024-05-09T09:17:17.165Z,14.57
2024-05-09T09:20:02.962Z,13.02
2024-05-09T09:22:48.293Z,12.35
2024-05-09T09:25:33.604Z,17.77
2024-05-09T09:28:22.756Z,12.00
2024-05-09T09:31:08.010Z,13.13
2024-05-09T09:33:54.027Z,13.45
2024-05-09T09:36:40.143Z,11.88
2024-05-09T09:39:28.628Z,11.23
2024-05-09T09:42:22.772Z,9.88
2024-05-09T09:45:08.339Z,9.55
2024-05-09T09:47:57.240Z,12.25
2024-05-09T09:50:43.400Z,14.95
2024-05-09T09:53:29.353Z,11.75
2024-05-09T09:56:18.081Z,15.38
2024-05-09T09:59:04.694Z,10.55
2024-05-09T10:01:50.345Z,12.73
2024-05-09T10:04:36.706Z,11.60
2024-05-09T10:07:22.784Z,10.68
2024-05-09T10:10:11.003Z,13.80
2024-05-09T10:13:06.365Z,13.18
2024-05-09T10:15:53.971Z,11.07
2024-05-09T10:18:40.767Z,9.65
2024-05-09T10:21:27.094Z,10.18
2024-05-09T10:24:12.864Z,10.18
2024-05-09T10:26:58.515Z,7.47
2024-05-09T10:29:53.785Z,9.32
2024-05-09T10:32:40.701Z,9.65
2024-05-09T10:35:26.912Z,8.48
2024-05-09T10:38:12.583Z,10.30
2024-05-09T10:41:00.022Z,11.35
2024-05-09T10:43:45.641Z,9.52
2024-05-09T10:46:31.296Z,8.20
2024-05-09T10:49:17.091Z,10.73
2024-05-09T10:52:03.855Z,12.27
2024-05-09T10:54:50.176Z,8.75
2024-05-09T10:57:40.738Z,8.45
2024-05-09T11:00:36.120Z,8.57
2024-05-09T11:03:26.088Z,9.93
2024-05-09T11:06:11.618Z,10.55
2024-05-09T11:08:57.630Z,11.65
2024-05-09T11:11:43.244Z,10.48
2024-05-09T11:14:28.459Z,10.30
2024-05-09T11:17:13.845Z,10.02
2024-05-09T11:20:00.412Z,10.13
2024-05-09T11:22:45.910Z,10.52
2024-05-09T11:25:33.229Z,11.20
2024-05-09T11:28:20.168Z,10.63
2024-05-09T11:31:07.907Z,10.30
2024-05-09T11:33:54.766Z,12.43
2024-05-09T11:36:40.408Z,10.45
2024-05-09T11:39:27.476Z,9.68
2024-05-09T11:42:13.075Z,11.73
2024-05-09T11:44:58.530Z,7.90
2024-05-09T11:47:44.332Z,9.70
2024-05-09T11:50:32.987Z,9.15
2024-05-09T11:53:20.707Z,7.70
2024-05-09T11:56:06.418Z,10.13
2024-05-09T11:58:52.283Z,14.30
2024-05-09T12:01:37.689Z,14.25
2024-05-09T12:04:23.336Z,13.65
2024-05-09T12:07:12.747Z,14.25
2024-05-09T12:09:59.808Z,15.05
2024-05-09T12:12:45.527Z,13.13
2024-05-09T12:15:31.086Z,14.23
2024-05-09T12:18:16.727Z,16.90
2024-05-09T12:21:02.769Z,17.85
2024-05-09T12:23:48.332Z,13.73
2024-05-09T12:26:33.514Z,12.57
2024-05-09T12:29:18.949Z,11.93
2024-05-09T12:32:04.870Z,15.65
2024-05-09T12:34:50.506Z,20.88
2024-05-09T12:37:36.130Z,19.27
2024-05-09T12:40:30.702Z,21.92
2024-05-09T12:43:20.569Z,18.90
2024-05-09T12:46:06.220Z,16.33
2024-05-09T12:48:52.090Z,15.68
2024-05-09T12:51:38.348Z,18.13
2024-05-09T12:54:23.738Z,18.60
2024-05-09T12:57:09.720Z,16.65
2024-05-09T12:59:56.019Z,17.73
2024-05-09T13:02:41.714Z,17.80
2024-05-09T13:05:27.156Z,18.02
2024-05-09T13:08:13.559Z,16.90
2024-05-09T13:10:59.248Z,17.83
2024-05-09T13:13:44.868Z,17.08
2024-05-09T13:16:31.577Z,20.15
2024-05-09T13:19:17.395Z,18.35
2024-05-09T13:22:02.979Z,20.65
2024-05-09T13:24:48.343Z,23.15
2024-05-09T13:27:34.667Z,21.45
2024-05-09T13:30:26.570Z,21.17
2024-05-09T13:33:20.994Z,21.52
2024-05-09T13:36:07.178Z,19.60
2024-05-09T13:38:52.639Z,18.38
2024-05-09T13:41:38.110Z,20.35
2024-05-09T13:44:23.600Z,16.48
2024-05-09T13:47:09.361Z,21.40
2024-05-09T13:49:54.779Z,17.80
2024-05-09T13:52:40.466Z,17.45
2024-05-09T13:55:26.241Z,16.85
2024-05-09T13:58:11.910Z,15.13
2024-05-09T14:00:57.192Z,17.30
2024-05-09T14:03:42.830Z,14.35
2024-05-09T14:06:28.373Z,15.27
2024-05-09T14:09:13.948Z,14.32
2024-05-09T14:11:59.672Z,13.52
2024-05-09T14:14:45.343Z,15.30
2024-05-09T14:17:31.020Z,13.32
2024-05-09T14:20:23.886Z,13.45
2024-05-09T14:23:18.155Z,14.27
2024-05-09T14:26:03.367Z,12.82
2024-05-09T14:28:48.687Z,13.88
2024-05-09T14:31:35.536Z,16.48
2024-05-09T14:34:22.896Z,16.23
2024-05-09T14:37:08.548Z,14.70
2024-05-09T14:39:54.072Z,14.43
2024-05-09T14:42:39.965Z,13.55
2024-05-09T14:45:25.296Z,16.25
2024-05-09T14:48:12.142Z,15.13
2024-05-09T14:50:57.472Z,16.10
2024-05-09T14:53:43.277Z,13.40
2024-05-09T14:56:29.250Z,13.00
2024-05-09T14:59:14.472Z,13.23
2024-05-09T15:02:00.295Z,12.45
2024-05-09T15:04:45.836Z,12.95
2024-05-09T15:07:31.323Z,15.07
2024-05-09T15:10:26.225Z,12.35
2024-05-09T15:13:17.528Z,12.57
2024-05-09T15:16:02.978Z,14.40
2024-05-09T15:18:48.472Z,16.67
2024-05-09T15:21:33.966Z,14.85
2024-05-09T15:24:19.469Z,15.73
2024-05-09T15:27:04.776Z,12.85
2024-05-09T15:29:50.046Z,13.10
2024-05-09T15:32:35.742Z,15.00
2024-05-09T15:35:21.520Z,12.35
2024-05-09T15:38:06.741Z,13.77
2024-05-09T15:40:52.768Z,14.50
2024-05-09T15:43:38.406Z,13.25
2024-05-09T15:46:24.134Z,13.48
2024-05-09T15:49:10.033Z,11.93
2024-05-09T15:51:55.479Z,14.75
2024-05-09T15:54:40.764Z,15.45
2024-05-09T15:57:26.317Z,15.10
2024-05-09T16:00:21.863Z,12.38
2024-05-09T16:03:15.099Z,15.18
2024-05-09T16:06:01.346Z,12.48
2024-05-09T16:08:46.706Z,14.02
2024-05-09T16:11:32.339Z,11.70
2024-05-09T16:14:19.018Z,12.55
2024-05-09T16:17:05.168Z,14.40
2024-05-09T16:19:50.438Z,14.60
2024-05-09T16:22:35.463Z,13.60
2024-05-09T16:25:20.856Z,12.38
2024-05-09T16:28:09.729Z,13.63
2024-05-09T16:30:56.124Z,14.23
2024-05-09T16:33:41.894Z,12.82
2024-05-09T16:36:27.289Z,13.15
2024-05-09T16:39:12.708Z,12.48
2024-05-09T16:41:57.894Z,14.18
2024-05-09T16:44:43.488Z,13.77
2024-05-09T16:47:29.547Z,13.23
2024-05-09T16:50:19.089Z,14.98
2024-05-09T16:53:08.662Z,15.75
2024-05-09T16:55:54.806Z,13.73
2024-05-09T16:58:40.459Z,16.58
2024-05-09T17:01:26.291Z,15.95
2024-05-09T17:04:11.744Z,13.20
2024-05-09T17:06:57.271Z,10.35
2024-05-09T17:09:42.592Z,15.07
2024-05-09T17:12:27.900Z,13.45
2024-05-09T17:15:13.871Z,15.50
2024-05-09T17:17:59.653Z,14.02
2024-05-09T17:20:45.066Z,12.68
2024-05-09T17:23:31.854Z,11.63
2024-05-09T17:26:18.819Z,13.30
2024-05-09T17:29:05.381Z,11.85
2024-05-09T17:31:51.589Z,12.13
2024-05-09T17:34:37.425Z,9.88
2024-05-09T17:37:22.961Z,10.90
2024-05-09T17:40:16.614Z,11.48
2024-05-09T17:43:03.392Z,12.13
2024-05-09T17:45:49.104Z,11.13
2024-05-09T17:48:35.031Z,9.25
2024-05-09T17:51:20.594Z,11.65
2024-05-09T17:54:06.144Z,11.13
2024-05-09T17:56:51.766Z,9.98
2024-05-09T17:59:37.065Z,10.45
2024-05-09T18:02:22.807Z,10.57
2024-05-09T18:05:08.989Z,9.30
2024-05-09T18:07:54.871Z,9.70
2024-05-09T18:10:41.383Z,7.50
2024-05-09T18:13:27.445Z,8.48
2024-05-09T18:16:13.634Z,7.57
2024-05-09T18:18:59.058Z,7.63
2024-05-09T18:21:44.616Z,9.15
2024-05-09T18:24:30.058Z,9.40
2024-05-09T18:27:15.842Z,10.93
2024-05-09T18:30:01.206Z,9.90
2024-05-09T18:32:46.800Z,9.00
2024-05-09T18:35:32.365Z,8.55
2024-05-09T18:38:19.042Z,9.23
2024-05-09T18:41:05.097Z,9.82
2024-05-09T18:43:51.045Z,9.32
2024-05-09T18:46:36.476Z,10.07
2024-05-09T18:49:22.004Z,10.18
2024-05-09T18:52:07.491Z,9.20
2024-05-09T18:54:52.862Z,9.00
2024-05-09T18:57:38.316Z,10.27
2024-05-09T19:00:33.231Z,9.10
2024-05-09T19:03:22.620Z,9.80
2024-05-09T19:06:09.564Z,10.65
2024-05-09T19:08:54.953Z,9.15
2024-05-09T19:11:40.920Z,8.80
2024-05-09T19:14:26.143Z,9.88
2024-05-09T19:17:11.801Z,10.75
2024-05-09T19:19:57.513Z,11.32
2024-05-09T19:22:50.803Z,12.60
2024-05-09T19:25:36.680Z,10.02
2024-05-09T19:28:22.236Z,9.43
2024-05-09T19:31:13.970Z,11.27
2024-05-09T19:33:59.141Z,10.68
2024-05-09T19:36:44.881Z,10.90
2024-05-09T19:39:30.086Z,9.48
2024-05-09T19:42:15.666Z,7.45
2024-05-09T19:45:01.198Z,10.35
2024-05-09T19:47:47.165Z,9.35
2024-05-09T19:50:41.683Z,10.25
2024-05-09T19:53:29.612Z,10.27
2024-05-09T19:56:15.303Z,9.60
2024-05-09T19:59:00.998Z,9.18
2024-05-09T20:01:56.238Z,9.18
2024-05-09T20:04:45.712Z,8.38
2024-05-09T20:07:33.224Z,10.07
2024-05-09T20:10:23.915Z,11.43
2024-05-09T20:13:15.048Z,13.13
2024-05-09T20:16:01.488Z,10.13
2024-05-09T20:18:47.202Z,12.95
2024-05-09T20:21:32.625Z,13.63
2024-05-09T20:24:18.201Z,10.35
2024-05-09T20:27:03.877Z,11.25
2024-05-09T20:29:49.536Z,13.07
2024-05-09T20:32:35.045Z,12.85
2024-05-09T20:35:20.813Z,11.88
2024-05-09T20:38:06.219Z,13.00
2024-05-09T20:40:51.895Z,12.65
2024-05-09T20:43:37.062Z,11.45
2024-05-09T20:46:22.669Z,11.18
2024-05-09T20:49:08.599Z,15.38
2024-05-09T20:51:54.115Z,14.20
2024-05-09T20:54:39.563Z,13.32
2024-05-09T20:57:25.189Z,11.98
2024-05-09T21:00:15.383Z,16.75
2024-05-09T21:03:04.855Z,16.17
2024-05-09T21:05:50.716Z,16.15
2024-05-09T21:08:36.440Z,13.55
2024-05-09T21:11:23.071Z,16.08
2024-05-09T21:14:08.652Z,16.90
2024-05-09T21:16:54.226Z,17.20
2024-05-09T21:19:39.432Z,14.80
2024-05-09T21:22:25.262Z,16.15
2024-05-09T21:25:11.008Z,18.48
2024-05-09T21:27:56.557Z,14.93
2024-05-09T21:30:43.215Z,18.67
2024-05-09T21:33:28.927Z,18.48
2024-05-09T21:36:14.376Z,17.40
2024-05-09T21:38:59.428Z,17.63
2024-05-09T21:41:45.228Z,17.88
2024-05-09T21:44:30.585Z,17.13
2024-05-09T21:47:16.057Z,16.60
2024-05-09T21:50:01.694Z,16.90
2024-05-09T21:52:47.007Z,15.52
2024-05-09T21:55:32.178Z,18.48
2024-05-09T21:58:26.580Z,17.02
2024-05-09T22:01:13.573Z,17.75
2024-05-09T22:03:59.205Z,20.52
2024-05-09T22:06:44.612Z,17.20
2024-05-09T22:09:29.726Z,19.85
2024-05-09T22:12:14.999Z,18.02
2024-05-09T22:15:00.345Z,18.35
2024-05-09T22:17:46.156Z,16.33
2024-05-09T22:20:37.149Z,13.63
2024-05-09T22:23:24.526Z,16.98
2024-05-09T22:26:09.857Z,14.23
2024-05-09T22:28:55.497Z,13.93
2024-05-09T22:31:40.992Z,14.70
2024-05-09T22:34:26.713Z,14.93
2024-05-09T22:37:12.506Z,16.58
2024-05-09T22:39:58.000Z,16.08
2024-05-09T22:42:43.589Z,17.63
2024-05-09T22:45:29.145Z,13.10
2024-05-09T22:48:14.952Z,14.55
2024-05-09T22:51:00.823Z,16.17
2024-05-09T22:53:45.871Z,14.73
2024-05-09T22:56:31.475Z,15.35
2024-05-09T22:59:18.086Z,13.32
2024-05-09T23:02:03.958Z,15.07
2024-05-09T23:04:49.543Z,17.45
2024-05-09T23:07:34.775Z,17.17
2024-05-09T23:10:27.492Z,16.38
2024-05-09T23:13:17.848Z,17.20
2024-05-09T23:16:03.523Z,15.82
2024-05-09T23:18:48.966Z,16.42
2024-05-09T23:21:38.672Z,17.45
2024-05-09T23:24:24.016Z,17.15
2024-05-09T23:27:09.777Z,19.45
2024-05-09T23:29:55.268Z,15.95
2024-05-09T23:32:40.661Z,18.55
2024-05-09T23:35:26.602Z,17.33
2024-05-09T23:38:12.498Z,18.55
2024-05-09T23:40:58.349Z,20.27
2024-05-09T23:43:43.614Z,21.90
2024-05-09T23:46:29.450Z,22.45
2024-05-09T23:49:15.025Z,20.20
2024-05-09T23:52:00.539Z,23.67
2024-05-09T23:54:46.849Z,19.90
2024-05-09T23:57:32.588Z,21.35
